createdAt,value
2022-09-20T00:01:07.798Z,5.12
2022-09-20T00:03:36.717Z,5.08
2022-09-20T00:06:04.995Z,5.07
2022-09-20T00:08:31.823Z,5.14
2022-09-20T00:11:02.329Z,5.21
2022-09-20T00:13:30.125Z,5.22
2022-09-20T00:15:56.777Z,5.29
2022-09-20T00:18:23.948Z,5.34
2022-09-20T00:20:51.057Z,5.31
2022-09-20T00:23:18.110Z,5.31
2022-09-20T00:25:44.743Z,5.20
2022-09-20T00:28:11.648Z,5.19
2022-09-20T00:30:39.312Z,5.09
2022-09-20T00:33:06.031Z,5.03
2022-09-20T00:35:33.142Z,5.11
2022-09-20T00:37:59.736Z,5.12
2022-09-20T00:40:30.442Z,5.03
2022-09-20T00:42:57.161Z,4.92
2022-09-20T00:45:26.645Z,4.87
2022-09-20T00:47:59.176Z,4.85
2022-09-20T00:50:36.950Z,4.67
2022-09-20T00:53:07.993Z,4.70
2022-09-20T00:55:39.301Z,4.72
2022-09-20T00:58:06.685Z,4.63
2022-09-20T01:00:33.407Z,4.62
2022-09-20T01:03:03.573Z,4.42
2022-09-20T01:05:30.332Z,4.34
2022-09-20T01:07:57.200Z,4.33
2022-09-20T01:10:23.862Z,4.39
2022-09-20T01:12:52.149Z,4.33
2022-09-20T01:15:19.201Z,4.44
2022-09-20T01:17:48.535Z,4.53
2022-09-20T01:20:22.823Z,4.57
2022-09-20T01:23:01.169Z,4.62
2022-09-20T01:26:09.151Z,4.61
2022-09-20T01:28:36.200Z,4.61
2022-09-20T01:31:17.443Z,4.69
2022-09-20T01:33:54.085Z,4.66
2022-09-20T01:36:58.909Z,4.71
2022-09-20T01:39:37.530Z,4.68
2022-09-20T01:42:09.602Z,4.66
2022-09-20T01:44:48.608Z,4.70
2022-09-20T01:47:27.533Z,4.66
2022-09-20T01:50:07.721Z,4.62
2022-09-20T01:53:01.661Z,4.55
2022-09-20T01:55:54.177Z,4.45
2022-09-20T01:59:01.908Z,4.38
2022-09-20T02:01:53.555Z,4.37
2022-09-20T02:04:42.075Z,4.38
2022-09-20T02:07:33.229Z,4.31
2022-09-20T02:10:08.797Z,4.36
2022-09-20T02:12:54.469Z,4.28
2022-09-20T02:15:39.275Z,4.29
2022-09-20T02:18:43.956Z,4.28
2022-09-20T02:21:30.410Z,4.09
2022-09-20T02:24:15.668Z,4.12
2022-09-20T02:27:19.344Z,3.97
2022-09-20T02:29:51.708Z,3.85
2022-09-20T02:32:25.064Z,3.73
2022-09-20T02:35:06.331Z,3.71
2022-09-20T02:37:54.324Z,3.64
2022-09-20T02:40:31.722Z,3.60
2022-09-20T02:43:19.664Z,3.56
2022-09-20T02:46:18.226Z,3.57
2022-09-20T02:48:44.856Z,3.51
2022-09-20T02:51:18.538Z,3.46
2022-09-20T02:54:23.637Z,3.34
2022-09-20T02:57:27.028Z,3.27
2022-09-20T02:59:58.769Z,3.19
2022-09-20T03:02:51.449Z,3.14
2022-09-20T03:05:33.321Z,3.14
2022-09-20T03:08:22.090Z,3.02
2022-09-20T03:11:02.452Z,3.04
2022-09-20T03:13:53.511Z,3.10
2022-09-20T03:16:51.930Z,3.23
2022-09-20T03:19:54.830Z,3.06
2022-09-20T03:22:30.152Z,3.05
2022-09-20T03:25:17.894Z,2.86
2022-09-20T03:28:05.545Z,2.91
2022-09-20T03:31:00.136Z,2.89
2022-09-20T03:33:51.393Z,2.85
2022-09-20T03:36:32.770Z,2.78
2022-09-20T03:39:14.742Z,2.91
2022-09-20T03:41:59.925Z,3.10
2022-09-20T03:44:42.565Z,3.07
2022-09-20T03:47:25.561Z,2.95
2022-09-20T03:50:11.346Z,2.94
2022-09-20T03:52:42.476Z,2.92
2022-09-20T03:55:31.213Z,2.83
2022-09-20T03:57:57.770Z,2.90
2022-09-20T04:00:30.261Z,2.96
2022-09-20T04:03:19.727Z,3.10
2022-09-20T04:06:34.520Z,3.15
2022-09-20T04:09:22.831Z,3.13
2022-09-20T04:12:04.696Z,3.10
2022-09-20T04:14:43.197Z,3.09
2022-09-20T04:17:31.470Z,3.06
2022-09-20T04:20:07.850Z,3.06
2022-09-20T04:22:35.059Z,2.93
2022-09-20T04:25:06.328Z,2.92
2022-09-20T04:27:43.031Z,2.89
2022-09-20T04:30:22.652Z,2.93
2022-09-20T04:33:15.468Z,2.86
2022-09-20T04:36:14.522Z,2.91
2022-09-20T04:38:41.622Z,2.89
2022-09-20T04:41:52.901Z,2.85
2022-09-20T04:44:22.433Z,2.83
2022-09-20T04:47:10.348Z,2.79
2022-09-20T04:50:06.327Z,2.80
2022-09-20T04:52:34.529Z,2.83
2022-09-20T04:55:10.375Z,2.78
2022-09-20T04:57:46.051Z,2.87
2022-09-20T05:00:17.092Z,2.85
2022-09-20T05:02:58.603Z,2.76
2022-09-20T05:05:31.165Z,2.75
2022-09-20T05:08:10.070Z,2.91
2022-09-20T05:10:40.041Z,2.91
2022-09-20T05:13:38.442Z,2.90
2022-09-20T05:16:07.903Z,2.88
2022-09-20T05:18:56.241Z,2.98
2022-09-20T05:21:47.680Z,3.06
2022-09-20T05:24:47.360Z,3.03
2022-09-20T05:27:48.526Z,3.06
2022-09-20T05:30:26.545Z,3.13
2022-09-20T05:33:10.294Z,3.19
2022-09-20T05:35:44.963Z,3.32
2022-09-20T05:38:32.766Z,3.31
2022-09-20T05:41:19.037Z,3.24
2022-09-20T05:43:55.829Z,3.25
2022-09-20T05:46:50.301Z,3.25
2022-09-20T05:49:50.610Z,3.14
2022-09-20T05:52:43.222Z,3.05
2022-09-20T05:55:38.671Z,3.09
2022-09-20T05:58:39.036Z,3.21
2022-09-20T06:01:17.667Z,3.22
2022-09-20T06:03:49.090Z,3.26
2022-09-20T06:06:53.461Z,3.32
2022-09-20T06:09:27.344Z,3.23
2022-09-20T06:11:53.878Z,3.21
2022-09-20T06:14:34.964Z,3.30
2022-09-20T06:17:23.081Z,3.08
2022-09-20T06:19:53.325Z,3.34
2022-09-20T06:22:29.973Z,3.34
2022-09-20T06:25:04.291Z,3.33
2022-09-20T06:27:35.672Z,3.42
2022-09-20T06:30:06.012Z,3.41
2022-09-20T06:32:34.807Z,3.45
2022-09-20T06:35:02.672Z,3.45
2022-09-20T06:38:10.656Z,3.48
2022-09-20T06:41:03.673Z,3.68
2022-09-20T06:43:31.569Z,3.81
2022-09-20T06:45:58.755Z,3.79
2022-09-20T06:48:25.502Z,3.98
2022-09-20T06:50:52.453Z,3.97
2022-09-20T06:53:26.784Z,4.04
2022-09-20T06:55:53.651Z,4.15
2022-09-20T06:58:20.437Z,4.27
2022-09-20T07:00:47.188Z,4.42
2022-09-20T07:03:14.144Z,4.53
2022-09-20T07:05:40.834Z,4.74
2022-09-20T07:08:07.472Z,4.71
2022-09-20T07:10:34.126Z,4.71
2022-09-20T07:13:02.160Z,5.13
2022-09-20T07:15:30.898Z,5.29
2022-09-20T07:17:57.534Z,5.47
2022-09-20T07:20:24.354Z,5.60
2022-09-20T07:22:51.109Z,5.81
2022-09-20T07:25:18.381Z,5.97
2022-09-20T07:27:46.555Z,6.28
2022-09-20T07:30:14.807Z,6.42
2022-09-20T07:32:41.783Z,6.70
2022-09-20T07:35:10.158Z,6.73
2022-09-20T07:37:37.409Z,6.93
2022-09-20T07:40:14.772Z,7.00
2022-09-20T07:42:41.506Z,7.09
2022-09-20T07:45:08.560Z,7.27
2022-09-20T07:47:35.647Z,7.45
2022-09-20T07:50:03.432Z,7.69
2022-09-20T07:52:30.060Z,7.97
2022-09-20T07:54:56.680Z,8.25
2022-09-20T07:57:23.536Z,8.47
2022-09-20T07:59:50.192Z,8.59
2022-09-20T08:02:17.068Z,8.82
2022-09-20T08:04:44.118Z,9.01
2022-09-20T08:07:10.984Z,9.36
2022-09-20T08:09:37.621Z,9.58
2022-09-20T08:14:52.534Z,10.31
2022-09-20T08:17:19.677Z,10.58
2022-09-20T08:19:46.398Z,10.80
2022-09-20T08:22:13.197Z,10.99
2022-09-20T08:24:39.984Z,11.32
2022-09-20T08:27:06.590Z,11.60
2022-09-20T08:29:33.218Z,11.55
2022-09-20T08:32:01.632Z,11.55
2022-09-20T08:34:28.377Z,11.73
2022-09-20T08:36:56.676Z,11.89
2022-09-20T08:42:28.637Z,12.18
2022-09-20T08:45:05.945Z,12.32
2022-09-20T08:47:38.361Z,12.46
2022-09-20T08:50:09.840Z,12.28
2022-09-20T08:52:40.302Z,12.62
2022-09-20T08:55:18.708Z,12.63
2022-09-20T08:57:50.991Z,12.77
2022-09-20T09:00:21.176Z,12.89
2022-09-20T09:02:50.652Z,12.87
2022-09-20T09:05:32.108Z,12.84
2022-09-20T09:08:00.861Z,12.81
2022-09-20T09:10:54.900Z,12.91
2022-09-20T09:13:27.530Z,12.88
2022-09-20T09:16:00.356Z,13.06
2022-09-20T09:18:32.713Z,13.04
2022-09-20T09:21:00.285Z,13.23
2022-09-20T09:23:28.017Z,13.32
2022-09-20T09:25:55.453Z,13.44
2022-09-20T09:28:26.814Z,13.56
2022-09-20T09:30:54.312Z,13.24
2022-09-20T09:33:31.545Z,13.25
2022-09-20T09:36:03.838Z,13.72
2022-09-20T09:38:32.825Z,13.74
2022-09-20T09:41:01.890Z,13.71
2022-09-20T09:43:35.440Z,13.70
2022-09-20T09:46:23.298Z,13.58
2022-09-20T09:49:12.429Z,13.68
2022-09-20T09:51:42.523Z,13.80
2022-09-20T09:54:17.078Z,13.95
2022-09-20T09:56:49.450Z,14.10
2022-09-20T09:59:40.500Z,14.35
2022-09-20T10:02:34.186Z,14.33
2022-09-20T10:05:16.093Z,14.10
2022-09-20T10:08:07.974Z,14.37
2022-09-20T10:10:41.601Z,14.38
2022-09-20T10:13:11.072Z,14.42
2022-09-20T10:15:49.465Z,14.47
2022-09-20T10:18:25.014Z,14.61
2022-09-20T10:21:10.220Z,14.38
2022-09-20T10:24:04.053Z,14.51
2022-09-20T10:26:44.438Z,14.60
2022-09-20T10:29:29.578Z,14.56
2022-09-20T10:32:05.101Z,13.93
2022-09-20T10:34:46.929Z,14.07
2022-09-20T10:37:25.356Z,14.39
2022-09-20T10:40:05.026Z,14.50
2022-09-20T10:43:06.393Z,14.64
2022-09-20T10:46:14.089Z,14.76
2022-09-20T10:48:33.801Z,14.66
2022-09-20T10:51:19.463Z,14.67
2022-09-20T10:54:10.752Z,14.73
2022-09-20T10:56:40.685Z,14.84
2022-09-20T10:59:12.923Z,14.99
2022-09-20T11:02:01.890Z,14.66
2022-09-20T11:05:08.564Z,14.61
2022-09-20T11:07:58.923Z,14.29
2022-09-20T11:10:36.513Z,14.22
2022-09-20T11:13:28.056Z,14.45
2022-09-20T11:16:01.060Z,14.58
2022-09-20T11:18:59.294Z,14.64
2022-09-20T11:21:34.353Z,14.72
2022-09-20T11:24:24.470Z,14.68
2022-09-20T11:26:53.674Z,14.52
2022-09-20T11:29:22.910Z,14.52
2022-09-20T11:31:53.287Z,14.33
2022-09-20T11:34:40.313Z,14.48
2022-09-20T11:37:07.026Z,14.68
2022-09-20T11:39:42.871Z,14.82
2022-09-20T11:42:16.848Z,14.90
2022-09-20T11:44:43.721Z,14.76
2022-09-20T11:47:53.346Z,14.86
2022-09-20T11:50:45.323Z,15.04
2022-09-20T11:53:34.469Z,14.95
2022-09-20T11:56:26.280Z,15.01
2022-09-20T11:58:59.110Z,14.96
2022-09-20T12:01:33.137Z,15.05
2022-09-20T12:04:30.674Z,15.32
2022-09-20T12:07:18.041Z,15.35
2022-09-20T12:09:59.596Z,15.53
2022-09-20T12:12:39.480Z,15.49
2022-09-20T12:15:22.544Z,15.49
2022-09-20T12:17:49.806Z,15.55
2022-09-20T12:20:42.601Z,15.59
2022-09-20T12:23:43.359Z,15.55
2022-09-20T12:26:18.936Z,15.62
2022-09-20T12:28:52.771Z,15.50
2022-09-20T12:31:22.034Z,15.38
2022-09-20T12:34:10.492Z,15.44
2022-09-20T12:36:43.273Z,15.41
2022-09-20T12:39:15.155Z,15.39
2022-09-20T12:42:28.299Z,15.39
2022-09-20T12:45:04.518Z,15.54
2022-09-20T12:47:35.637Z,15.50
2022-09-20T12:50:23.568Z,15.58
2022-09-20T12:53:00.743Z,15.51
2022-09-20T12:55:27.551Z,15.43
2022-09-20T12:57:58.617Z,15.31
2022-09-20T13:00:36.403Z,15.05
2022-09-20T13:03:36.438Z,15.23
2022-09-20T13:06:11.108Z,15.36
2022-09-20T13:08:51.941Z,15.19
2022-09-20T13:11:30.461Z,15.21
2022-09-20T13:14:06.277Z,15.37
2022-09-20T13:16:54.844Z,15.29
2022-09-20T13:19:28.766Z,15.46
2022-09-20T13:22:14.360Z,15.49
2022-09-20T13:24:45.182Z,15.54
2022-09-20T13:27:42.633Z,15.52
2022-09-20T13:30:28.905Z,15.49
2022-09-20T13:32:55.601Z,15.35
2022-09-20T13:35:24.136Z,15.41
2022-09-20T13:37:54.469Z,15.47
2022-09-20T13:40:24.719Z,15.46
2022-09-20T13:43:12.984Z,15.32
2022-09-20T13:45:42.459Z,15.22
2022-09-20T13:48:09.608Z,15.35
2022-09-20T13:50:42.009Z,15.48
2022-09-20T13:53:33.266Z,15.60
2022-09-20T13:56:10.513Z,15.44
2022-09-20T13:58:38.064Z,15.55
2022-09-20T14:01:06.870Z,15.67
2022-09-20T14:03:34.900Z,15.54
2022-09-20T14:06:04.438Z,15.60
2022-09-20T14:08:38.222Z,15.67
2022-09-20T14:11:08.782Z,15.79
2022-09-20T14:13:41.177Z,15.83
2022-09-20T14:16:09.096Z,16.19
2022-09-20T14:18:37.934Z,16.35
2022-09-20T14:21:06.599Z,16.56
2022-09-20T14:23:33.232Z,16.81
2022-09-20T14:26:27.780Z,16.93
2022-09-20T14:28:54.828Z,16.48
2022-09-20T14:31:23.045Z,16.36
2022-09-20T14:33:55.313Z,16.28
2022-09-20T14:36:24.746Z,16.35
2022-09-20T14:38:54.371Z,16.16
2022-09-20T14:41:35.768Z,16.00
2022-09-20T14:44:03.211Z,16.34
2022-09-20T14:46:36.064Z,16.72
2022-09-20T14:49:22.330Z,17.03
2022-09-20T14:51:49.193Z,17.68
2022-09-20T14:54:33.028Z,18.21
2022-09-20T14:56:59.701Z,18.70
2022-09-20T14:59:27.223Z,19.00
2022-09-20T15:02:14.278Z,19.23
2022-09-20T15:04:42.417Z,19.78
2022-09-20T15:07:13.248Z,20.10
2022-09-20T15:09:39.872Z,19.95
2022-09-20T15:12:12.346Z,19.40
2022-09-20T15:14:40.788Z,19.51
2022-09-20T15:17:09.633Z,20.10
2022-09-20T15:19:36.266Z,20.71
2022-09-20T15:22:02.886Z,19.94
2022-09-20T15:24:29.546Z,19.24
2022-09-20T15:26:56.225Z,18.62
2022-09-20T15:29:22.838Z,18.17
2022-09-20T15:31:49.601Z,17.26
2022-09-20T15:34:16.730Z,17.09
2022-09-20T15:36:43.718Z,16.84
2022-09-20T15:39:10.869Z,16.82
2022-09-20T15:41:38.009Z,16.70
2022-09-20T15:44:04.993Z,16.31
2022-09-20T15:46:32.285Z,16.17
2022-09-20T15:49:03.262Z,16.03
2022-09-20T15:51:33.064Z,15.97
2022-09-20T15:54:02.428Z,15.90
2022-09-20T15:56:31.184Z,15.64
2022-09-20T15:59:03.258Z,15.26
2022-09-20T16:01:33.153Z,14.89
2022-09-20T16:04:00.261Z,14.93
2022-09-20T16:06:26.944Z,15.03
2022-09-20T16:08:53.665Z,15.12
2022-09-20T16:11:22.812Z,15.09
2022-09-20T16:13:56.860Z,15.10
2022-09-20T16:16:24.879Z,15.14
2022-09-20T16:19:10.896Z,15.02
2022-09-20T16:21:39.651Z,14.81
2022-09-20T16:24:07.128Z,14.88
2022-09-20T16:26:34.735Z,14.62
2022-09-20T16:29:02.629Z,14.60
2022-09-20T16:31:43.220Z,14.58
2022-09-20T16:34:13.455Z,14.58
2022-09-20T16:36:44.214Z,14.59
2022-09-20T16:39:11.933Z,14.56
2022-09-20T16:41:39.641Z,14.56
2022-09-20T16:44:09.841Z,14.49
2022-09-20T16:46:37.456Z,14.31
2022-09-20T16:49:09.677Z,14.09
2022-09-20T16:51:37.909Z,14.03
2022-09-20T16:54:12.474Z,13.96
2022-09-20T16:56:45.109Z,13.92
2022-09-20T16:59:12.628Z,13.81
2022-09-20T17:01:40.430Z,13.63
2022-09-20T17:04:07.552Z,13.31
2022-09-20T17:06:36.213Z,13.12
2022-09-20T17:09:04.441Z,13.10
2022-09-20T17:11:34.725Z,13.11
2022-09-20T17:14:01.365Z,13.05
2022-09-20T17:16:30.645Z,13.06
2022-09-20T17:18:59.489Z,12.99
2022-09-20T17:21:27.677Z,12.60
2022-09-20T17:23:56.339Z,12.37
2022-09-20T17:26:26.843Z,12.20
2022-09-20T17:28:58.200Z,12.09
2022-09-20T17:31:33.866Z,12.09
2022-09-20T17:34:05.097Z,12.10
2022-09-20T17:36:34.220Z,12.06
2022-09-20T17:39:04.521Z,11.98
2022-09-20T17:41:32.836Z,11.97
2022-09-20T17:44:02.792Z,11.66
2022-09-20T17:46:31.842Z,11.88
2022-09-20T17:49:01.235Z,11.82
2022-09-20T17:51:32.017Z,11.79
2022-09-20T17:53:59.152Z,11.75
2022-09-20T17:56:28.815Z,11.70
2022-09-20T17:58:56.889Z,11.68
2022-09-20T18:01:23.911Z,11.62
2022-09-20T18:03:50.686Z,11.56
2022-09-20T18:06:28.696Z,11.35
2022-09-20T18:08:57.838Z,11.30
2022-09-20T18:11:34.601Z,11.07
2022-09-20T18:14:02.377Z,11.08
2022-09-20T18:16:31.004Z,11.05
2022-09-20T18:18:59.349Z,10.99
2022-09-20T18:21:27.574Z,11.03
2022-09-20T18:23:54.361Z,10.87
2022-09-20T18:26:22.886Z,10.82
2022-09-20T18:28:58.212Z,10.74
2022-09-20T18:31:32.452Z,10.69
2022-09-20T18:34:00.889Z,10.63
2022-09-20T18:36:28.973Z,10.52
2022-09-20T18:38:57.325Z,10.54
2022-09-20T18:41:28.840Z,10.60
2022-09-20T18:43:56.148Z,10.43
2022-09-20T18:46:25.021Z,10.47
2022-09-20T18:48:52.924Z,10.49
2022-09-20T18:51:20.367Z,10.42
2022-09-20T18:53:47.538Z,10.38
2022-09-20T18:56:22.814Z,10.39
2022-09-20T18:58:51.692Z,10.44
2022-09-20T19:01:51.000Z,10.49
2022-09-20T19:04:36.469Z,10.44
2022-09-20T19:07:27.382Z,10.34
2022-09-20T19:10:05.958Z,10.28
2022-09-20T19:12:48.594Z,10.10
2022-09-20T19:15:38.648Z,10.21
2022-09-20T19:18:42.366Z,10.20
2022-09-20T19:21:17.798Z,10.26
2022-09-20T19:24:03.093Z,10.20
2022-09-20T19:26:31.641Z,10.19
2022-09-20T19:29:00.160Z,10.20
2022-09-20T19:31:34.218Z,10.30
2022-09-20T19:34:06.798Z,10.31
2022-09-20T19:36:51.695Z,10.33
2022-09-20T19:39:45.029Z,10.31
2022-09-20T19:42:36.292Z,10.38
2022-09-20T19:45:22.739Z,10.48
2022-09-20T19:47:52.170Z,10.60
2022-09-20T19:50:29.922Z,10.60
2022-09-20T19:52:56.803Z,10.53
2022-09-20T19:55:23.713Z,10.44
2022-09-20T19:57:51.121Z,10.37
2022-09-20T20:00:20.366Z,10.45
2022-09-20T20:02:47.800Z,10.42
2022-09-20T20:05:17.457Z,10.50
2022-09-20T20:07:50.234Z,10.54
2022-09-20T20:10:16.800Z,10.58
2022-09-20T20:12:50.882Z,10.55
2022-09-20T20:15:29.161Z,10.66
2022-09-20T20:18:04.930Z,10.64
2022-09-20T20:20:45.896Z,10.71
2022-09-20T20:23:43.121Z,10.64
2022-09-20T20:26:16.495Z,10.60
2022-09-20T20:28:43.117Z,10.58
2022-09-20T20:31:12.587Z,10.61
2022-09-20T20:33:39.922Z,10.61
2022-09-20T20:36:09.057Z,10.58
2022-09-20T20:38:39.425Z,10.65
2022-09-20T20:41:08.810Z,10.54
2022-09-20T20:43:38.245Z,10.48
2022-09-20T20:46:07.072Z,10.38
2022-09-20T20:48:33.858Z,10.45
2022-09-20T20:51:10.210Z,10.48
2022-09-20T20:53:38.750Z,10.50
2022-09-20T20:56:08.682Z,10.55
2022-09-20T20:58:40.857Z,10.50
2022-09-20T21:01:12.697Z,10.53
2022-09-20T21:03:41.212Z,10.44
2022-09-20T21:06:08.273Z,10.36
2022-09-20T21:08:36.116Z,10.41
2022-09-20T21:11:11.570Z,10.42
2022-09-20T21:13:39.514Z,10.39
2022-09-20T21:16:09.144Z,10.27
2022-09-20T21:18:35.974Z,10.19
2022-09-20T21:21:04.337Z,10.17
2022-09-20T21:23:35.022Z,10.22
2022-09-20T21:26:07.810Z,10.23
2022-09-20T21:28:36.684Z,10.23
2022-09-20T21:31:06.598Z,10.24
2022-09-20T21:33:34.812Z,10.22
2022-09-20T21:36:02.578Z,10.27
2022-09-20T21:38:30.236Z,10.32
2022-09-20T21:41:11.835Z,10.31
2022-09-20T21:43:43.899Z,10.28
2022-09-20T21:46:12.411Z,10.18
2022-09-20T21:48:39.747Z,10.11
2022-09-20T21:51:07.537Z,10.13
2022-09-20T21:53:34.679Z,10.14
2022-09-20T21:56:03.615Z,10.11
2022-09-20T21:58:30.420Z,10.09
2022-09-20T22:01:11.839Z,10.17
2022-09-20T22:03:39.183Z,10.19
2022-09-20T22:06:07.173Z,10.20
2022-09-20T22:08:33.814Z,10.11
2022-09-20T22:11:00.462Z,10.00
2022-09-20T22:13:27.108Z,10.02
2022-09-20T22:15:53.754Z,10.01
2022-09-20T22:18:20.357Z,10.07
2022-09-20T22:20:47.251Z,10.03
2022-09-20T22:23:13.905Z,10.02
2022-09-20T22:25:40.530Z,10.00
2022-09-20T22:28:07.285Z,10.03
2022-09-20T22:30:34.013Z,9.87
2022-09-20T22:33:00.783Z,9.89
2022-09-20T22:35:27.381Z,9.86
2022-09-20T22:37:56.324Z,9.80
2022-09-20T22:40:23.037Z,9.79
2022-09-20T22:42:49.662Z,9.86
2022-09-20T22:45:16.276Z,9.85
2022-09-20T22:47:44.276Z,9.94
2022-09-20T22:50:11.062Z,9.87
2022-09-20T22:52:37.712Z,9.95
2022-09-20T22:55:04.604Z,9.90
2022-09-20T22:57:31.233Z,9.87
2022-09-20T22:59:57.824Z,9.87
2022-09-20T23:02:24.452Z,9.87
2022-09-20T23:04:51.054Z,9.86
2022-09-20T23:07:17.680Z,9.72
2022-09-20T23:09:45.552Z,9.79
2022-09-20T23:12:12.173Z,9.75
2022-09-20T23:14:38.785Z,9.78
2022-09-20T23:17:05.431Z,9.66
2022-09-20T23:19:32.038Z,9.58
2022-09-20T23:21:58.741Z,9.57
2022-09-20T23:24:25.364Z,9.54
2022-09-20T23:26:52.093Z,9.44
2022-09-20T23:29:18.748Z,9.37
2022-09-20T23:31:47.394Z,9.42
2022-09-20T23:34:15.358Z,9.32
2022-09-20T23:36:42.227Z,9.30
2022-09-20T23:39:09.828Z,9.09
2022-09-20T23:41:36.855Z,9.00
2022-09-20T23:44:06.239Z,9.03
2022-09-20T23:46:33.385Z,9.10
2022-09-20T23:49:00.347Z,9.21
2022-09-20T23:51:28.564Z,9.28
2022-09-20T23:53:55.205Z,9.24
2022-09-20T23:56:22.516Z,9.30
2022-09-20T23:58:50.239Z,9.29
